• Join FlightAware (Why Join?)
  • Login
  • US Flag 
10:07PM EDT


 

Airport Tracker/Info


-or-


 

Live Flight TrackerFlight Track Log ✈ N960DL ✈ 11-Jun-2013 ✈ KMKE - KDTW

Flight Track Log - Related Links

Times and Time Zones

All times are in EDT time to prevent confusion due to time zone crossing. See the N960DL flight status page for this flight to view local times or setup timezone preferences in your user account.

Time Position Orientation Groundspeed Altitude Reporting Facility
EDT Latitude Longitude Course Direction KTS MPH feet Rate Location/Type
01:45PM 42.9167 -87.9000 72° East 172 198 1,700  Level KMKE
01:46PM 42.9000 -87.8833 144° Southeast 177 204 2,400 1,500 Climbing KMKE
01:47PM 42.8981 -87.8258 93° East 244 281 3,600 1,380 Climbing Chicago Center
01:48PM 42.9250 -87.7239 70° East 284 327 5,000 1,800 Climbing Chicago Center
01:49PM 42.8615 -87.2993 90° East  Level Estimated
01:49PM 42.9514 -87.6222 70° East 286 329 7,400  Level Chicago Center
01:50PM 42.9040 -87.1586 68° East  Level FlightAware Approximate
01:50PM 42.9572 -87.5042 86° East 313 360 10,200  Level Chicago Center
01:51PM 42.8797 -87.0100 72° East  Level Estimated
01:51PM 42.9544 -87.3594 91° East 354 407 11,900  Level Chicago Center
01:52PM 42.9583 -87.2019 88° East 412 474 14,400 2,460 Climbing Chicago Center
01:53PM 42.9878 -87.0483 75° East 416 479 17,100 2,280 Climbing Chicago Center
01:54PM 43.0178 -86.8914 75° East 426 490 19,200 2,220 Climbing Chicago Center
01:55PM 43.0508 -86.6925 77° East 445 512 21,700 1,800 Climbing Chicago Center
01:56PM 43.0728 -86.5175 80° East 463 533 23,000 600 Climbing Chicago Center
01:57PM 43.0975 -86.3383 79° East 476 548 23,000  Level Chicago Center
01:58PM 43.1233 -86.1586 79° East 478 550 23,000  Level Chicago Center
01:59PM 43.1489 -85.9719 79° East 482 555 23,000  Level Chicago Center
02:00PM 43.1731 -85.7875 80° East 482 555 23,000  Level Chicago Center
02:01PM 43.1964 -85.6092 80° East 475 547 23,000  Level Chicago Center
02:02PM 43.2200 -85.4300 80° East 477 549 23,000  Level Chicago Center
02:03PM 43.2417 -85.2506 81° East 477 549 23,000  Level Chicago Center
02:04PM 43.2106 -85.0300 101° East 491 565 23,000  Level Chicago Center
02:05PM 43.1733 -84.8511 106° East 491 565 23,000  Level Chicago Center
02:06PM 43.1169 -84.6797 114° Southeast 493 567 23,000 -780 Level Chicago Center
02:07PM 43.0678 -84.5111 112° Southeast 479 551 21,400 -1,980 Descending Chicago Center
02:08PM 43.0217 -84.3494 111° Southeast 459 528 19,000 -2,460 Descending Chicago Center
02:09PM 42.9753 -84.1892 112° Southeast 455 524 16,400 -2,640 Descending Chicago Center
02:10PM 42.9483 -84.1061 114° Southeast 446 513 15,300 -2,400 Descending Cleveland Center
02:10PM 42.9181 -84.0053 112° Southeast 426 490 13,800 -2,040 Descending Cleveland Center
02:11PM 42.9047 -83.9564 110° East 435 501 13,300 -1,680 Descending Cleveland Center
02:11PM 42.8747 -83.8469 110° East 406 467 12,100 -1,320 Descending Cleveland Center
02:12PM 42.8628 -83.8181 119° Southeast 422 486 12,000 -120 Descending Cleveland Center
02:12PM 42.8175 -83.7281 124° Southeast 359 413 12,000 -300 Level Cleveland Center
02:13PM 42.7369 -83.7014 166° South 289 333 11,500 -960 Descending Cleveland Center
02:15PM 42.6417 -83.6797 171° South 286 329 9,900 -1,320 Descending Cleveland Center
02:16PM 42.5972 -83.6183 135° Southeast 262 302 8,700 -1,440 Descending Cleveland Center
02:16PM 42.5556 -83.5458 128° Southeast 260 299 7,300 -1,440 Descending Cleveland Center
02:17PM 42.5197 -83.4736 124° Southeast 253 291 6,100 -960 Descending Cleveland Center
02:19PM 42.4658 -83.3783 127° Southeast 255 293 5,300 -780 Descending Cleveland Center
02:19PM 42.4506 -83.3186 109° East 220 253 4,600 -720 Descending Cleveland Center
02:21PM 42.3972 -83.2825 153° Southeast 194 223 4,000 -540 Descending Cleveland Center